CheckWX is a tool to help pilots better visualize weather data.  It is not intended as a substitute for an official pre-flight weather briefing.

06:05:56 UTC

KFSW METAR
Fort Madison Municipal Airport
Fort Madison, Iowa, USA
Current

11 mins ago

KFSW 240555Z AUTO 06005KT 3/4SM -SN 00/00 A2987 RMK AO2
Observed
Jan-24 @ 05:55 UTC
Wind
  • 060° at 5 KTS
Visibility
3/4 SM
Conditions
Light Snow
Temperature
C / 32°F
Dewpoint
C / 32°F
Humidity
100%
Altimeter
29.87" Hg
Pressure
1011.52 hPa
Previous

31 mins ago

KFSW 240535Z AUTO 06003KT 3/4SM -SN 00/00 A2987 RMK AO2
Observed
Jan-24 @ 05:35 UTC
Wind
  • 060° at 3 KTS
Visibility
3/4 SM
Conditions
Light Snow
Temperature
C / 32°F
Dewpoint
C / 32°F
Humidity
100%
Altimeter
29.87" Hg
Pressure
1011.52 hPa
Previous

51 mins ago

KFSW 240515Z AUTO 06003KT 3/4SM -SN 00/00 A2988 RMK AO2
Observed
Jan-24 @ 05:15 UTC
Wind
  • 060° at 3 KTS
Visibility
3/4 SM
Conditions
Light Snow
Temperature
C / 32°F
Dewpoint
C / 32°F
Humidity
100%
Altimeter
29.88" Hg
Pressure
1011.82 hPa